sensor_id;sensor_type;location;lat;lon;timestamp;temperature;humidity
15947;DHT22;8072;52.554;7.966;2023-07-08T00:01:17;18.80;99.90
15947;DHT22;8072;52.554;7.966;2023-07-08T00:03:43;18.80;99.90
15947;DHT22;8072;52.554;7.966;2023-07-08T00:06:20;18.70;99.90
15947;DHT22;8072;52.554;7.966;2023-07-08T00:08:47;18.70;99.90
15947;DHT22;8072;52.554;7.966;2023-07-08T00:11:14;18.60;99.90
15947;DHT22;8072;52.554;7.966;2023-07-08T00:13:40;18.50;99.90
15947;DHT22;8072;52.554;7.966;2023-07-08T00:16:10;18.40;99.90
15947;DHT22;8072;52.554;7.966;2023-07-08T00:18:37;18.30;99.90
15947;DHT22;8072;52.554;7.966;2023-07-08T00:21:08;18.30;99.90
15947;DHT22;8072;52.554;7.966;2023-07-08T00:23:34;18.20;99.90
15947;DHT22;8072;52.554;7.966;2023-07-08T00:26:01;18.20;99.90
15947;DHT22;8072;52.554;7.966;2023-07-08T00:28:27;18.20;99.90
15947;DHT22;8072;52.554;7.966;2023-07-08T00:30:53;18.20;99.90
15947;DHT22;8072;52.554;7.966;2023-07-08T00:33:20;18.20;99.90
15947;DHT22;8072;52.554;7.966;2023-07-08T00:35:46;18.20;99.90
15947;DHT22;8072;52.554;7.966;2023-07-08T00:38:24;18.10;99.90
15947;DHT22;8072;52.554;7.966;2023-07-08T00:41:27;18.10;99.90
15947;DHT22;8072;52.554;7.966;2023-07-08T00:43:55;18.10;99.90
15947;DHT22;8072;52.554;7.966;2023-07-08T00:46:31;18.10;99.90
15947;DHT22;8072;52.554;7.966;2023-07-08T00:49:27;18.00;99.90
15947;DHT22;8072;52.554;7.966;2023-07-08T00:51:55;18.00;99.90
15947;DHT22;8072;52.554;7.966;2023-07-08T00:54:21;18.00;99.90
15947;DHT22;8072;52.554;7.966;2023-07-08T00:56:57;17.90;99.90
15947;DHT22;8072;52.554;7.966;2023-07-08T00:59:53;17.90;99.90
15947;DHT22;8072;52.554;7.966;2023-07-08T01:02:22;17.90;99.90
15947;DHT22;8072;52.554;7.966;2023-07-08T01:04:52;17.90;99.90
15947;DHT22;8072;52.554;7.966;2023-07-08T01:07:20;17.90;99.90
15947;DHT22;8072;52.554;7.966;2023-07-08T01:09:57;17.90;99.90
15947;DHT22;8072;52.554;7.966;2023-07-08T01:12:31;17.90;99.90
15947;DHT22;8072;52.554;7.966;2023-07-08T01:14:59;17.90;99.90
15947;DHT22;8072;52.554;7.966;2023-07-08T01:17:28;17.90;99.90
15947;DHT22;8072;52.554;7.966;2023-07-08T01:19:59;17.80;99.90
15947;DHT22;8072;52.554;7.966;2023-07-08T01:22:39;17.80;99.90
15947;DHT22;8072;52.554;7.966;2023-07-08T01:25:07;17.80;99.90
15947;DHT22;8072;52.554;7.966;2023-07-08T01:27:36;17.70;99.90
15947;DHT22;8072;52.554;7.966;2023-07-08T01:30:04;17.70;99.90
15947;DHT22;8072;52.554;7.966;2023-07-08T01:32:32;17.60;99.90
15947;DHT22;8072;52.554;7.966;2023-07-08T01:35:00;17.50;99.90
15947;DHT22;8072;52.554;7.966;2023-07-08T01:37:47;17.40;99.90
15947;DHT22;8072;52.554;7.966;2023-07-08T01:40:36;17.30;99.90
15947;DHT22;8072;52.554;7.966;2023-07-08T01:43:04;17.20;99.90
15947;DHT22;8072;52.554;7.966;2023-07-08T01:45:39;17.10;99.90
15947;DHT22;8072;52.554;7.966;2023-07-08T01:48:11;17.00;99.90
15947;DHT22;8072;52.554;7.966;2023-07-08T01:50:40;17.00;99.90
15947;DHT22;8072;52.554;7.966;2023-07-08T01:53:16;16.90;99.90
15947;DHT22;8072;52.554;7.966;2023-07-08T01:55:42;16.90;99.90
15947;DHT22;8072;52.554;7.966;2023-07-08T01:58:07;16.90;99.90
15947;DHT22;8072;52.554;7.966;2023-07-08T02:00:33;16.90;99.90
15947;DHT22;8072;52.554;7.966;2023-07-08T02:02:59;16.90;99.90
15947;DHT22;8072;52.554;7.966;2023-07-08T02:05:25;16.90;99.90
15947;DHT22;8072;52.554;7.966;2023-07-08T02:07:50;16.90;99.90
15947;DHT22;8072;52.554;7.966;2023-07-08T02:10:16;16.80;99.90
15947;DHT22;8072;52.554;7.966;2023-07-08T02:12:42;16.80;99.90
15947;DHT22;8072;52.554;7.966;2023-07-08T02:15:09;16.80;99.90
15947;DHT22;8072;52.554;7.966;2023-07-08T02:17:35;16.70;99.90
15947;DHT22;8072;52.554;7.966;2023-07-08T02:20:01;16.70;99.90
15947;DHT22;8072;52.554;7.966;2023-07-08T02:22:27;16.70;99.90
15947;DHT22;8072;52.554;7.966;2023-07-08T02:24:53;16.70;99.90
15947;DHT22;8072;52.554;7.966;2023-07-08T02:27:19;16.60;99.90
15947;DHT22;8072;52.554;7.966;2023-07-08T02:29:44;16.60;99.90
15947;DHT22;8072;52.554;7.966;2023-07-08T02:32:10;16.60;99.90
15947;DHT22;8072;52.554;7.966;2023-07-08T02:34:37;16.50;99.90
15947;DHT22;8072;52.554;7.966;2023-07-08T02:37:05;16.50;99.90
15947;DHT22;8072;52.554;7.966;2023-07-08T02:39:31;16.40;99.90
15947;DHT22;8072;52.554;7.966;2023-07-08T02:41:58;16.30;99.90
15947;DHT22;8072;52.554;7.966;2023-07-08T02:44:23;16.30;99.90
15947;DHT22;8072;52.554;7.966;2023-07-08T02:46:49;16.30;99.90
15947;DHT22;8072;52.554;7.966;2023-07-08T02:49:15;16.30;99.90
15947;DHT22;8072;52.554;7.966;2023-07-08T02:51:41;16.30;99.90
15947;DHT22;8072;52.554;7.966;2023-07-08T02:54:10;16.20;99.90
15947;DHT22;8072;52.554;7.966;2023-07-08T02:56:35;16.20;99.90
15947;DHT22;8072;52.554;7.966;2023-07-08T02:59:01;16.20;99.90
15947;DHT22;8072;52.554;7.966;2023-07-08T03:01:27;16.20;99.90
15947;DHT22;8072;52.554;7.966;2023-07-08T03:03:53;16.10;99.90
15947;DHT22;8072;52.554;7.966;2023-07-08T03:06:23;16.10;99.90
15947;DHT22;8072;52.554;7.966;2023-07-08T03:08:49;16.10;99.90
15947;DHT22;8072;52.554;7.966;2023-07-08T03:11:18;16.00;99.90
15947;DHT22;8072;52.554;7.966;2023-07-08T03:13:44;16.00;99.90
15947;DHT22;8072;52.554;7.966;2023-07-08T03:16:09;16.00;99.90
15947;DHT22;8072;52.554;7.966;2023-07-08T03:18:39;16.00;99.90
15947;DHT22;8072;52.554;7.966;2023-07-08T03:21:13;16.00;99.90
15947;DHT22;8072;52.554;7.966;2023-07-08T03:23:39;15.90;99.90
15947;DHT22;8072;52.554;7.966;2023-07-08T03:26:05;15.90;99.90
15947;DHT22;8072;52.554;7.966;2023-07-08T03:28:31;15.90;99.90
15947;DHT22;8072;52.554;7.966;2023-07-08T03:30:57;15.90;99.90
15947;DHT22;8072;52.554;7.966;2023-07-08T03:33:23;15.90;99.90
15947;DHT22;8072;52.554;7.966;2023-07-08T03:35:50;15.90;99.90
15947;DHT22;8072;52.554;7.966;2023-07-08T03:38:22;15.90;99.90
15947;DHT22;8072;52.554;7.966;2023-07-08T03:40:48;15.90;99.90
15947;DHT22;8072;52.554;7.966;2023-07-08T03:43:14;15.90;99.90
15947;DHT22;8072;52.554;7.966;2023-07-08T03:45:40;15.90;99.90
15947;DHT22;8072;52.554;7.966;2023-07-08T03:48:05;15.90;99.90
15947;DHT22;8072;52.554;7.966;2023-07-08T03:50:31;15.90;99.90
15947;DHT22;8072;52.554;7.966;2023-07-08T03:52:57;15.80;99.90
15947;DHT22;8072;52.554;7.966;2023-07-08T03:55:23;15.80;99.90
15947;DHT22;8072;52.554;7.966;2023-07-08T03:57:50;15.90;99.90
15947;DHT22;8072;52.554;7.966;2023-07-08T04:00:16;15.90;99.90
15947;DHT22;8072;52.554;7.966;2023-07-08T04:02:42;15.80;99.90
15947;DHT22;8072;52.554;7.966;2023-07-08T04:05:16;15.80;99.90
15947;DHT22;8072;52.554;7.966;2023-07-08T04:07:42;15.80;99.90
15947;DHT22;8072;52.554;7.966;2023-07-08T04:10:09;15.80;99.90
15947;DHT22;8072;52.554;7.966;2023-07-08T04:12:36;15.80;99.90
15947;DHT22;8072;52.554;7.966;2023-07-08T04:15:03;15.80;99.90
15947;DHT22;8072;52.554;7.966;2023-07-08T04:17:30;15.80;99.90
15947;DHT22;8072;52.554;7.966;2023-07-08T04:19:56;15.90;99.90
15947;DHT22;8072;52.554;7.966;2023-07-08T04:22:22;15.90;99.90
15947;DHT22;8072;52.554;7.966;2023-07-08T04:24:49;15.90;99.90
15947;DHT22;8072;52.554;7.966;2023-07-08T04:27:16;15.90;99.90
15947;DHT22;8072;52.554;7.966;2023-07-08T04:29:44;15.90;99.90
15947;DHT22;8072;52.554;7.966;2023-07-08T04:32:10;16.00;99.90
15947;DHT22;8072;52.554;7.966;2023-07-08T04:34:36;16.00;99.90
15947;DHT22;8072;52.554;7.966;2023-07-08T04:37:01;16.00;99.90
15947;DHT22;8072;52.554;7.966;2023-07-08T04:39:30;16.00;99.90
15947;DHT22;8072;52.554;7.966;2023-07-08T04:41:56;16.00;99.90
15947;DHT22;8072;52.554;7.966;2023-07-08T04:44:22;16.00;99.90
15947;DHT22;8072;52.554;7.966;2023-07-08T04:46:57;16.00;99.90
15947;DHT22;8072;52.554;7.966;2023-07-08T04:49:24;16.10;99.90
15947;DHT22;8072;52.554;7.966;2023-07-08T04:51:57;16.10;99.90
15947;DHT22;8072;52.554;7.966;2023-07-08T04:54:25;16.10;99.90
15947;DHT22;8072;52.554;7.966;2023-07-08T04:56:51;16.20;99.90
15947;DHT22;8072;52.554;7.966;2023-07-08T04:59:22;16.20;99.90
15947;DHT22;8072;52.554;7.966;2023-07-08T05:01:49;16.20;99.90
15947;DHT22;8072;52.554;7.966;2023-07-08T05:04:16;16.30;99.90
15947;DHT22;8072;52.554;7.966;2023-07-08T05:06:42;16.30;99.90
15947;DHT22;8072;52.554;7.966;2023-07-08T05:09:09;16.40;99.90
15947;DHT22;8072;52.554;7.966;2023-07-08T05:11:35;16.50;99.90
15947;DHT22;8072;52.554;7.966;2023-07-08T05:14:03;16.50;99.90
15947;DHT22;8072;52.554;7.966;2023-07-08T05:16:29;16.60;99.90
15947;DHT22;8072;52.554;7.966;2023-07-08T05:18:56;16.70;99.90
15947;DHT22;8072;52.554;7.966;2023-07-08T05:21:23;16.70;99.90
15947;DHT22;8072;52.554;7.966;2023-07-08T05:23:48;16.80;99.90
15947;DHT22;8072;52.554;7.966;2023-07-08T05:26:15;16.90;99.90
15947;DHT22;8072;52.554;7.966;2023-07-08T05:28:41;17.00;99.90
15947;DHT22;8072;52.554;7.966;2023-07-08T05:31:09;17.00;99.90
15947;DHT22;8072;52.554;7.966;2023-07-08T05:33:36;17.10;99.90
15947;DHT22;8072;52.554;7.966;2023-07-08T05:36:02;17.10;99.90
15947;DHT22;8072;52.554;7.966;2023-07-08T05:38:28;17.20;99.90
15947;DHT22;8072;52.554;7.966;2023-07-08T05:40:57;17.20;99.90
15947;DHT22;8072;52.554;7.966;2023-07-08T05:43:24;17.30;99.90
15947;DHT22;8072;52.554;7.966;2023-07-08T05:45:50;17.40;99.90
15947;DHT22;8072;52.554;7.966;2023-07-08T05:48:16;17.40;99.90
15947;DHT22;8072;52.554;7.966;2023-07-08T05:50:42;17.40;99.90
15947;DHT22;8072;52.554;7.966;2023-07-08T05:53:11;17.50;99.90
15947;DHT22;8072;52.554;7.966;2023-07-08T05:55:37;17.60;99.90
15947;DHT22;8072;52.554;7.966;2023-07-08T05:58:03;17.60;99.90
15947;DHT22;8072;52.554;7.966;2023-07-08T06:00:29;17.70;99.90
15947;DHT22;8072;52.554;7.966;2023-07-08T06:02:55;17.70;99.90
15947;DHT22;8072;52.554;7.966;2023-07-08T06:05:21;17.80;99.90
15947;DHT22;8072;52.554;7.966;2023-07-08T06:07:46;17.90;99.90
15947;DHT22;8072;52.554;7.966;2023-07-08T06:10:12;17.90;99.90
15947;DHT22;8072;52.554;7.966;2023-07-08T06:12:38;18.00;99.90
15947;DHT22;8072;52.554;7.966;2023-07-08T06:15:04;18.10;99.90
15947;DHT22;8072;52.554;7.966;2023-07-08T06:17:30;18.20;99.90
15947;DHT22;8072;52.554;7.966;2023-07-08T06:19:55;18.30;99.90
15947;DHT22;8072;52.554;7.966;2023-07-08T06:22:21;18.30;99.90
15947;DHT22;8072;52.554;7.966;2023-07-08T06:24:48;18.40;99.90
15947;DHT22;8072;52.554;7.966;2023-07-08T06:27:14;18.50;99.90
15947;DHT22;8072;52.554;7.966;2023-07-08T06:29:42;18.60;99.90
15947;DHT22;8072;52.554;7.966;2023-07-08T06:32:08;18.70;99.90
15947;DHT22;8072;52.554;7.966;2023-07-08T06:34:34;18.80;99.90
15947;DHT22;8072;52.554;7.966;2023-07-08T06:37:00;18.90;99.90
15947;DHT22;8072;52.554;7.966;2023-07-08T06:39:25;19.00;99.90
15947;DHT22;8072;52.554;7.966;2023-07-08T06:41:51;19.10;99.90
15947;DHT22;8072;52.554;7.966;2023-07-08T06:44:17;19.20;99.90
15947;DHT22;8072;52.554;7.966;2023-07-08T06:46:44;19.30;99.90
15947;DHT22;8072;52.554;7.966;2023-07-08T06:49:10;19.40;99.90
15947;DHT22;8072;52.554;7.966;2023-07-08T06:51:37;19.50;99.90
15947;DHT22;8072;52.554;7.966;2023-07-08T06:54:03;19.60;99.90
15947;DHT22;8072;52.554;7.966;2023-07-08T06:56:40;19.70;99.90
15947;DHT22;8072;52.554;7.966;2023-07-08T06:59:07;19.80;99.90
15947;DHT22;8072;52.554;7.966;2023-07-08T07:01:34;19.80;99.90
15947;DHT22;8072;52.554;7.966;2023-07-08T07:03:59;20.00;99.90
15947;DHT22;8072;52.554;7.966;2023-07-08T07:06:26;20.10;99.90
15947;DHT22;8072;52.554;7.966;2023-07-08T07:08:52;20.10;99.90
15947;DHT22;8072;52.554;7.966;2023-07-08T07:11:18;20.30;99.90
15947;DHT22;8072;52.554;7.966;2023-07-08T07:13:46;20.40;99.90
15947;DHT22;8072;52.554;7.966;2023-07-08T07:16:13;20.50;99.90
15947;DHT22;8072;52.554;7.966;2023-07-08T07:18:38;20.50;99.90
15947;DHT22;8072;52.554;7.966;2023-07-08T07:21:04;20.60;99.90
15947;DHT22;8072;52.554;7.966;2023-07-08T07:23:30;20.70;99.90
15947;DHT22;8072;52.554;7.966;2023-07-08T07:25:56;20.80;99.90
15947;DHT22;8072;52.554;7.966;2023-07-08T07:28:23;20.90;99.90
15947;DHT22;8072;52.554;7.966;2023-07-08T07:30:57;21.00;99.90
15947;DHT22;8072;52.554;7.966;2023-07-08T07:33:23;21.10;99.90
15947;DHT22;8072;52.554;7.966;2023-07-08T07:35:49;21.20;99.90
15947;DHT22;8072;52.554;7.966;2023-07-08T07:38:15;21.30;99.90
15947;DHT22;8072;52.554;7.966;2023-07-08T07:40:44;21.40;99.90
15947;DHT22;8072;52.554;7.966;2023-07-08T07:43:10;21.50;99.90
15947;DHT22;8072;52.554;7.966;2023-07-08T07:45:36;21.60;99.90
15947;DHT22;8072;52.554;7.966;2023-07-08T07:48:02;21.70;99.90
15947;DHT22;8072;52.554;7.966;2023-07-08T07:50:28;21.90;99.90
15947;DHT22;8072;52.554;7.966;2023-07-08T07:52:54;22.00;99.90
15947;DHT22;8072;52.554;7.966;2023-07-08T07:55:20;22.20;99.90
15947;DHT22;8072;52.554;7.966;2023-07-08T07:57:45;22.30;99.90
15947;DHT22;8072;52.554;7.966;2023-07-08T08:00:12;22.40;99.90
15947;DHT22;8072;52.554;7.966;2023-07-08T08:02:43;22.50;99.90
15947;DHT22;8072;52.554;7.966;2023-07-08T08:05:09;22.60;99.90
15947;DHT22;8072;52.554;7.966;2023-07-08T08:07:35;22.70;99.90
15947;DHT22;8072;52.554;7.966;2023-07-08T08:10:03;22.90;99.90
15947;DHT22;8072;52.554;7.966;2023-07-08T08:12:29;22.90;99.90
15947;DHT22;8072;52.554;7.966;2023-07-08T08:14:55;23.10;99.90
15947;DHT22;8072;52.554;7.966;2023-07-08T08:17:21;23.20;99.90
15947;DHT22;8072;52.554;7.966;2023-07-08T08:19:47;23.30;99.90
15947;DHT22;8072;52.554;7.966;2023-07-08T08:22:13;23.40;99.90
15947;DHT22;8072;52.554;7.966;2023-07-08T08:24:39;23.50;99.90
15947;DHT22;8072;52.554;7.966;2023-07-08T08:27:06;23.60;99.90
15947;DHT22;8072;52.554;7.966;2023-07-08T08:29:31;23.80;99.90
15947;DHT22;8072;52.554;7.966;2023-07-08T08:31:58;23.80;99.90
15947;DHT22;8072;52.554;7.966;2023-07-08T08:34:23;23.90;99.90
15947;DHT22;8072;52.554;7.966;2023-07-08T08:36:49;24.00;99.90
15947;DHT22;8072;52.554;7.966;2023-07-08T08:39:15;24.10;99.90
15947;DHT22;8072;52.554;7.966;2023-07-08T08:41:43;24.20;99.90
15947;DHT22;8072;52.554;7.966;2023-07-08T08:44:17;24.40;99.90
15947;DHT22;8072;52.554;7.966;2023-07-08T08:47:14;24.50;99.90
15947;DHT22;8072;52.554;7.966;2023-07-08T08:49:54;24.50;99.90
15947;DHT22;8072;52.554;7.966;2023-07-08T08:52:22;24.60;99.90
15947;DHT22;8072;52.554;7.966;2023-07-08T08:54:48;24.80;99.90
15947;DHT22;8072;52.554;7.966;2023-07-08T08:59:56;24.90;99.90
15947;DHT22;8072;52.554;7.966;2023-07-08T09:02:42;25.00;99.90
15947;DHT22;8072;52.554;7.966;2023-07-08T09:05:11;25.20;99.90
15947;DHT22;8072;52.554;7.966;2023-07-08T09:10:45;25.40;99.90
15947;DHT22;8072;52.554;7.966;2023-07-08T09:13:24;25.50;99.90
15947;DHT22;8072;52.554;7.966;2023-07-08T09:16:02;25.60;99.90
15947;DHT22;8072;52.554;7.966;2023-07-08T09:18:41;25.70;99.90
15947;DHT22;8072;52.554;7.966;2023-07-08T09:21:18;25.80;99.90
15947;DHT22;8072;52.554;7.966;2023-07-08T09:23:47;25.90;99.90
15947;DHT22;8072;52.554;7.966;2023-07-08T09:26:22;26.00;99.90
15947;DHT22;8072;52.554;7.966;2023-07-08T09:28:50;26.10;99.90
15947;DHT22;8072;52.554;7.966;2023-07-08T09:31:28;26.30;99.90
15947;DHT22;8072;52.554;7.966;2023-07-08T09:34:35;26.40;99.90
15947;DHT22;8072;52.554;7.966;2023-07-08T09:36:51;26.60;99.90
15947;DHT22;8072;52.554;7.966;2023-07-08T09:39:18;26.70;99.90
15947;DHT22;8072;52.554;7.966;2023-07-08T09:41:47;26.80;99.90
15947;DHT22;8072;52.554;7.966;2023-07-08T09:44:25;27.00;99.90
15947;DHT22;8072;52.554;7.966;2023-07-08T09:47:25;27.10;99.90
15947;DHT22;8072;52.554;7.966;2023-07-08T09:49:52;27.20;99.90
15947;DHT22;8072;52.554;7.966;2023-07-08T09:52:19;27.30;99.90
15947;DHT22;8072;52.554;7.966;2023-07-08T09:54:46;27.50;99.90
15947;DHT22;8072;52.554;7.966;2023-07-08T10:00:01;27.70;99.90
15947;DHT22;8072;52.554;7.966;2023-07-08T10:05:00;28.00;99.90
15947;DHT22;8072;52.554;7.966;2023-07-08T10:07:30;28.20;99.90
15947;DHT22;8072;52.554;7.966;2023-07-08T10:10:06;28.20;99.90
15947;DHT22;8072;52.554;7.966;2023-07-08T10:12:33;28.30;99.90
15947;DHT22;8072;52.554;7.966;2023-07-08T10:15:30;28.40;99.90
15947;DHT22;8072;52.554;7.966;2023-07-08T10:17:53;28.60;99.90
15947;DHT22;8072;52.554;7.966;2023-07-08T10:20:20;28.70;99.90
15947;DHT22;8072;52.554;7.966;2023-07-08T10:23:04;28.80;99.90
15947;DHT22;8072;52.554;7.966;2023-07-08T10:25:40;28.90;99.90
15947;DHT22;8072;52.554;7.966;2023-07-08T10:31:06;29.30;99.90
15947;DHT22;8072;52.554;7.966;2023-07-08T10:36:36;29.50;99.90
15947;DHT22;8072;52.554;7.966;2023-07-08T11:09:24;31.10;99.90
15947;DHT22;8072;52.554;7.966;2023-07-08T11:12:00;31.10;99.90
15947;DHT22;8072;52.554;7.966;2023-07-08T11:14:51;31.20;99.90
15947;DHT22;8072;52.554;7.966;2023-07-08T11:17:32;31.20;99.90
15947;DHT22;8072;52.554;7.966;2023-07-08T11:23:23;31.50;99.90
15947;DHT22;8072;52.554;7.966;2023-07-08T11:26:10;31.50;99.90
15947;DHT22;8072;52.554;7.966;2023-07-08T11:28:37;31.60;99.90
15947;DHT22;8072;52.554;7.966;2023-07-08T11:31:03;31.70;99.90
15947;DHT22;8072;52.554;7.966;2023-07-08T11:33:32;31.90;99.90
15947;DHT22;8072;52.554;7.966;2023-07-08T11:35:59;32.00;99.90
15947;DHT22;8072;52.554;7.966;2023-07-08T11:38:27;32.00;99.90
15947;DHT22;8072;52.554;7.966;2023-07-08T11:43:26;32.20;99.90
15947;DHT22;8072;52.554;7.966;2023-07-08T11:45:55;32.20;99.90
15947;DHT22;8072;52.554;7.966;2023-07-08T11:48:29;32.30;99.90
15947;DHT22;8072;52.554;7.966;2023-07-08T11:50:55;32.40;99.90
15947;DHT22;8072;52.554;7.966;2023-07-08T11:56:00;32.50;99.90
15947;DHT22;8072;52.554;7.966;2023-07-08T11:58:31;32.50;99.90
15947;DHT22;8072;52.554;7.966;2023-07-08T12:01:00;32.60;99.90
15947;DHT22;8072;52.554;7.966;2023-07-08T12:03:35;32.60;99.90
15947;DHT22;8072;52.554;7.966;2023-07-08T12:06:02;32.60;99.90
15947;DHT22;8072;52.554;7.966;2023-07-08T12:08:37;32.60;99.90
15947;DHT22;8072;52.554;7.966;2023-07-08T12:11:11;32.50;99.90
15947;DHT22;8072;52.554;7.966;2023-07-08T12:13:40;32.60;99.90
15947;DHT22;8072;52.554;7.966;2023-07-08T12:16:11;32.70;99.90
15947;DHT22;8072;52.554;7.966;2023-07-08T12:18:39;32.70;99.90
15947;DHT22;8072;52.554;7.966;2023-07-08T12:21:12;32.70;99.90
15947;DHT22;8072;52.554;7.966;2023-07-08T12:23:47;32.70;99.90
15947;DHT22;8072;52.554;7.966;2023-07-08T12:26:13;32.80;99.90
15947;DHT22;8072;52.554;7.966;2023-07-08T12:28:40;32.90;99.90
15947;DHT22;8072;52.554;7.966;2023-07-08T12:31:21;32.90;99.90
15947;DHT22;8072;52.554;7.966;2023-07-08T12:33:48;33.10;99.90
15947;DHT22;8072;52.554;7.966;2023-07-08T12:36:20;33.10;99.90
15947;DHT22;8072;52.554;7.966;2023-07-08T12:38:51;33.20;99.50
15947;DHT22;8072;52.554;7.966;2023-07-08T12:41:21;33.20;99.70
15947;DHT22;8072;52.554;7.966;2023-07-08T12:43:48;33.20;97.40
15947;DHT22;8072;52.554;7.966;2023-07-08T12:46:15;33.20;97.90
15947;DHT22;8072;52.554;7.966;2023-07-08T12:48:42;33.20;98.10
15947;DHT22;8072;52.554;7.966;2023-07-08T12:51:16;33.20;99.70
15947;DHT22;8072;52.554;7.966;2023-07-08T12:53:43;33.20;98.80
15947;DHT22;8072;52.554;7.966;2023-07-08T12:56:10;33.20;96.80
15947;DHT22;8072;52.554;7.966;2023-07-08T12:58:48;33.20;98.80
15947;DHT22;8072;52.554;7.966;2023-07-08T13:01:22;33.20;97.70
15947;DHT22;8072;52.554;7.966;2023-07-08T13:03:52;33.30;98.50
15947;DHT22;8072;52.554;7.966;2023-07-08T13:06:21;33.20;96.80
15947;DHT22;8072;52.554;7.966;2023-07-08T13:08:48;33.30;96.70
15947;DHT22;8072;52.554;7.966;2023-07-08T13:11:16;33.30;96.50
15947;DHT22;8072;52.554;7.966;2023-07-08T13:13:59;33.30;96.60
15947;DHT22;8072;52.554;7.966;2023-07-08T13:16:32;33.30;96.70
15947;DHT22;8072;52.554;7.966;2023-07-08T13:19:01;33.30;96.50
15947;DHT22;8072;52.554;7.966;2023-07-08T13:21:28;33.40;96.50
15947;DHT22;8072;52.554;7.966;2023-07-08T13:23:56;33.40;95.70
15947;DHT22;8072;52.554;7.966;2023-07-08T13:26:28;33.50;95.90
15947;DHT22;8072;52.554;7.966;2023-07-08T13:29:20;33.50;96.40
15947;DHT22;8072;52.554;7.966;2023-07-08T13:31:49;33.60;95.90
15947;DHT22;8072;52.554;7.966;2023-07-08T13:34:19;33.60;95.90
15947;DHT22;8072;52.554;7.966;2023-07-08T13:36:50;33.70;96.70
15947;DHT22;8072;52.554;7.966;2023-07-08T13:41:48;33.70;96.10
15947;DHT22;8072;52.554;7.966;2023-07-08T13:44:14;33.70;95.60
15947;DHT22;8072;52.554;7.966;2023-07-08T13:46:54;33.70;96.10
15947;DHT22;8072;52.554;7.966;2023-07-08T13:49:25;33.70;96.10
15947;DHT22;8072;52.554;7.966;2023-07-08T13:52:05;33.70;95.00
15947;DHT22;8072;52.554;7.966;2023-07-08T13:57:12;33.80;94.70
15947;DHT22;8072;52.554;7.966;2023-07-08T13:59:38;33.80;94.60
15947;DHT22;8072;52.554;7.966;2023-07-08T14:02:18;33.80;94.80
15947;DHT22;8072;52.554;7.966;2023-07-08T14:04:45;33.80;94.40
15947;DHT22;8072;52.554;7.966;2023-07-08T14:07:21;33.80;94.50
15947;DHT22;8072;52.554;7.966;2023-07-08T14:09:47;33.80;94.40
15947;DHT22;8072;52.554;7.966;2023-07-08T14:12:13;33.80;94.30
15947;DHT22;8072;52.554;7.966;2023-07-08T14:14:39;33.80;93.30
15947;DHT22;8072;52.554;7.966;2023-07-08T14:17:07;33.70;93.30
15947;DHT22;8072;52.554;7.966;2023-07-08T14:19:34;33.70;94.20
15947;DHT22;8072;52.554;7.966;2023-07-08T14:24:43;33.80;93.20
15947;DHT22;8072;52.554;7.966;2023-07-08T14:27:10;33.70;94.00
15947;DHT22;8072;52.554;7.966;2023-07-08T14:29:38;33.70;92.70
15947;DHT22;8072;52.554;7.966;2023-07-08T14:32:07;33.70;93.40
15947;DHT22;8072;52.554;7.966;2023-07-08T14:34:36;33.70;94.80
15947;DHT22;8072;52.554;7.966;2023-07-08T14:37:02;33.60;94.40
15947;DHT22;8072;52.554;7.966;2023-07-08T14:39:28;33.50;95.00
15947;DHT22;8072;52.554;7.966;2023-07-08T14:41:53;33.50;95.70
15947;DHT22;8072;52.554;7.966;2023-07-08T14:44:25;33.50;95.10
15947;DHT22;8072;52.554;7.966;2023-07-08T14:46:52;33.60;95.00
15947;DHT22;8072;52.554;7.966;2023-07-08T14:49:20;33.60;95.30
15947;DHT22;8072;52.554;7.966;2023-07-08T14:51:46;33.60;94.50
15947;DHT22;8072;52.554;7.966;2023-07-08T14:54:12;33.60;96.00
15947;DHT22;8072;52.554;7.966;2023-07-08T14:56:39;33.50;94.70
15947;DHT22;8072;52.554;7.966;2023-07-08T14:59:06;33.60;94.70
15947;DHT22;8072;52.554;7.966;2023-07-08T15:01:33;33.60;95.00
15947;DHT22;8072;52.554;7.966;2023-07-08T15:03:58;33.60;93.10
15947;DHT22;8072;52.554;7.966;2023-07-08T15:06:25;33.60;94.60
15947;DHT22;8072;52.554;7.966;2023-07-08T15:08:51;33.60;94.70
15947;DHT22;8072;52.554;7.966;2023-07-08T15:11:18;33.70;94.70
15947;DHT22;8072;52.554;7.966;2023-07-08T15:13:44;33.70;95.40
15947;DHT22;8072;52.554;7.966;2023-07-08T15:16:15;33.70;95.30
15947;DHT22;8072;52.554;7.966;2023-07-08T15:18:43;33.70;95.50
15947;DHT22;8072;52.554;7.966;2023-07-08T15:21:16;33.70;95.00
15947;DHT22;8072;52.554;7.966;2023-07-08T15:23:42;33.70;95.30
15947;DHT22;8072;52.554;7.966;2023-07-08T15:26:12;33.70;95.30
15947;DHT22;8072;52.554;7.966;2023-07-08T15:28:49;33.60;95.60
15947;DHT22;8072;52.554;7.966;2023-07-08T15:31:20;33.50;94.00
15947;DHT22;8072;52.554;7.966;2023-07-08T15:33:50;33.50;95.30
15947;DHT22;8072;52.554;7.966;2023-07-08T15:36:15;33.40;95.10
15947;DHT22;8072;52.554;7.966;2023-07-08T15:38:42;33.40;95.10
15947;DHT22;8072;52.554;7.966;2023-07-08T15:41:21;33.40;95.20
15947;DHT22;8072;52.554;7.966;2023-07-08T15:43:48;33.40;94.90
15947;DHT22;8072;52.554;7.966;2023-07-08T15:46:15;33.40;94.90
15947;DHT22;8072;52.554;7.966;2023-07-08T15:48:41;33.40;95.60
15947;DHT22;8072;52.554;7.966;2023-07-08T15:51:08;33.30;94.20
15947;DHT22;8072;52.554;7.966;2023-07-08T15:53:37;33.30;94.00
15947;DHT22;8072;52.554;7.966;2023-07-08T15:56:03;33.20;94.10
15947;DHT22;8072;52.554;7.966;2023-07-08T15:58:32;33.10;93.40
15947;DHT22;8072;52.554;7.966;2023-07-08T16:01:00;33.10;94.90
15947;DHT22;8072;52.554;7.966;2023-07-08T16:03:29;33.00;94.20
15947;DHT22;8072;52.554;7.966;2023-07-08T16:05:57;33.00;95.00
15947;DHT22;8072;52.554;7.966;2023-07-08T16:08:23;33.00;96.80
15947;DHT22;8072;52.554;7.966;2023-07-08T16:13:38;33.00;97.00
15947;DHT22;8072;52.554;7.966;2023-07-08T16:16:06;32.90;95.80
15947;DHT22;8072;52.554;7.966;2023-07-08T16:18:32;32.90;95.00
15947;DHT22;8072;52.554;7.966;2023-07-08T16:20:58;32.80;94.70
15947;DHT22;8072;52.554;7.966;2023-07-08T16:23:24;32.80;95.50
15947;DHT22;8072;52.554;7.966;2023-07-08T16:25:51;32.80;94.40
15947;DHT22;8072;52.554;7.966;2023-07-08T16:30:55;32.60;95.70
15947;DHT22;8072;52.554;7.966;2023-07-08T16:33:22;32.60;96.30
15947;DHT22;8072;52.554;7.966;2023-07-08T16:35:48;32.50;94.60
15947;DHT22;8072;52.554;7.966;2023-07-08T16:38:15;32.50;94.30
15947;DHT22;8072;52.554;7.966;2023-07-08T16:40:41;32.40;95.30
15947;DHT22;8072;52.554;7.966;2023-07-08T16:43:23;32.40;95.30
15947;DHT22;8072;52.554;7.966;2023-07-08T16:45:50;32.40;95.70
15947;DHT22;8072;52.554;7.966;2023-07-08T16:48:16;32.30;96.20
15947;DHT22;8072;52.554;7.966;2023-07-08T16:50:44;32.30;96.70
15947;DHT22;8072;52.554;7.966;2023-07-08T16:53:11;32.30;97.00
15947;DHT22;8072;52.554;7.966;2023-07-08T16:55:37;32.20;96.40
15947;DHT22;8072;52.554;7.966;2023-07-08T16:58:03;32.20;96.80
15947;DHT22;8072;52.554;7.966;2023-07-08T17:00:28;32.20;97.00
15947;DHT22;8072;52.554;7.966;2023-07-08T17:02:56;32.10;97.20
15947;DHT22;8072;52.554;7.966;2023-07-08T17:05:33;32.10;96.80